sensor_id;sensor_type;location;lat;lon;timestamp;pressure;altitude;pressure_sealevel;temperature;humidity
26489;BME280;14169;43.684;10.484;2023-01-23T00:00:41;101531.03;;;5.91;100.00
26489;BME280;14169;43.684;10.484;2023-01-23T00:03:07;101534.47;;;5.99;100.00
26489;BME280;14169;43.684;10.484;2023-01-23T00:05:32;101537.91;;;6.03;100.00
26489;BME280;14169;43.684;10.484;2023-01-23T00:07:58;101538.78;;;6.06;100.00
26489;BME280;14169;43.684;10.484;2023-01-23T00:10:23;101520.69;;;6.06;100.00
26489;BME280;14169;43.684;10.484;2023-01-23T00:12:49;101519.81;;;6.10;100.00
26489;BME280;14169;43.684;10.484;2023-01-23T00:15:14;101517.22;;;6.12;100.00
26489;BME280;14169;43.684;10.484;2023-01-23T00:17:40;101519.81;;;6.07;100.00
26489;BME280;14169;43.684;10.484;2023-01-23T00:20:10;101518.09;;;6.02;100.00
26489;BME280;14169;43.684;10.484;2023-01-23T00:22:35;101518.09;;;5.99;100.00
26489;BME280;14169;43.684;10.484;2023-01-23T00:25:01;101520.69;;;5.94;100.00
26489;BME280;14169;43.684;10.484;2023-01-23T00:27:26;101537.06;;;5.90;100.00
26489;BME280;14169;43.684;10.484;2023-01-23T00:29:52;101541.38;;;5.88;100.00
26489;BME280;14169;43.684;10.484;2023-01-23T00:32:20;101541.38;;;5.93;100.00
26489;BME280;14169;43.684;10.484;2023-01-23T00:34:46;101544.81;;;5.96;100.00
26489;BME280;14169;43.684;10.484;2023-01-23T00:37:11;101550.00;;;6.02;100.00
26489;BME280;14169;43.684;10.484;2023-01-23T00:39:38;101546.53;;;5.97;100.00
26489;BME280;14169;43.684;10.484;2023-01-23T00:42:03;101546.53;;;5.90;100.00
26489;BME280;14169;43.684;10.484;2023-01-23T00:44:28;101541.38;;;5.85;100.00
26489;BME280;14169;43.684;10.484;2023-01-23T00:46:55;101538.78;;;5.85;100.00
26489;BME280;14169;43.684;10.484;2023-01-23T00:49:21;101531.88;;;5.93;100.00
26489;BME280;14169;43.684;10.484;2023-01-23T00:51:47;101524.13;;;5.99;100.00
26489;BME280;14169;43.684;10.484;2023-01-23T00:54:14;101541.38;;;6.08;100.00
26489;BME280;14169;43.684;10.484;2023-01-23T00:56:40;101527.56;;;6.15;100.00
26489;BME280;14169;43.684;10.484;2023-01-23T00:59:05;101532.72;;;6.13;100.00
26489;BME280;14169;43.684;10.484;2023-01-23T01:01:31;101531.88;;;6.14;100.00
26489;BME280;14169;43.684;10.484;2023-01-23T01:03:57;101525.84;;;6.12;100.00
26489;BME280;14169;43.684;10.484;2023-01-23T01:06:23;101532.72;;;6.15;100.00
26489;BME280;14169;43.684;10.484;2023-01-23T01:08:49;101529.28;;;6.16;100.00
26489;BME280;14169;43.684;10.484;2023-01-23T01:11:14;101524.13;;;6.11;100.00
26489;BME280;14169;43.684;10.484;2023-01-23T01:13:41;101526.72;;;6.14;100.00
26489;BME280;14169;43.684;10.484;2023-01-23T01:16:07;101529.28;;;6.20;100.00
26489;BME280;14169;43.684;10.484;2023-01-23T01:18:32;101537.03;;;6.29;100.00
26489;BME280;14169;43.684;10.484;2023-01-23T01:20:57;101527.53;;;6.33;100.00
26489;BME280;14169;43.684;10.484;2023-01-23T01:23:23;101534.44;;;6.34;100.00
26489;BME280;14169;43.684;10.484;2023-01-23T01:25:48;101531.00;;;6.32;100.00
26489;BME280;14169;43.684;10.484;2023-01-23T01:28:14;101524.97;;;6.28;100.00
26489;BME280;14169;43.684;10.484;2023-01-23T01:30:39;101517.19;;;6.27;100.00
26489;BME280;14169;43.684;10.484;2023-01-23T01:33:05;101537.03;;;6.23;100.00
26489;BME280;14169;43.684;10.484;2023-01-23T01:35:31;101529.28;;;6.22;100.00
26489;BME280;14169;43.684;10.484;2023-01-23T01:37:57;101531.88;;;6.17;100.00
26489;BME280;14169;43.684;10.484;2023-01-23T01:40:27;101542.22;;;6.07;100.00
26489;BME280;14169;43.684;10.484;2023-01-23T01:42:55;101538.78;;;5.96;100.00
26489;BME280;14169;43.684;10.484;2023-01-23T01:48:26;101527.59;;;5.85;100.00
26489;BME280;14169;43.684;10.484;2023-01-23T01:50:53;101531.03;;;5.83;100.00
26489;BME280;14169;43.684;10.484;2023-01-23T01:53:20;101531.03;;;5.82;100.00
26489;BME280;14169;43.684;10.484;2023-01-23T01:55:48;101532.75;;;5.83;100.00
26489;BME280;14169;43.684;10.484;2023-01-23T01:58:14;101531.03;;;5.82;100.00
26489;BME280;14169;43.684;10.484;2023-01-23T02:00:39;101529.31;;;5.83;100.00
26489;BME280;14169;43.684;10.484;2023-01-23T02:03:05;101527.59;;;5.86;100.00
26489;BME280;14169;43.684;10.484;2023-01-23T02:05:43;101527.56;;;5.89;100.00
26489;BME280;14169;43.684;10.484;2023-01-23T02:08:36;101525.00;;;5.95;100.00
26489;BME280;14169;43.684;10.484;2023-01-23T02:11:05;101518.09;;;5.97;100.00
26489;BME280;14169;43.684;10.484;2023-01-23T02:13:37;101518.97;;;5.90;100.00
26489;BME280;14169;43.684;10.484;2023-01-23T02:16:09;101519.84;;;5.85;100.00
26489;BME280;14169;43.684;10.484;2023-01-23T02:18:37;101509.50;;;5.85;100.00
26489;BME280;14169;43.684;10.484;2023-01-23T02:21:07;101506.88;;;5.83;100.00
26489;BME280;14169;43.684;10.484;2023-01-23T02:26:13;101504.31;;;5.77;100.00
26489;BME280;14169;43.684;10.484;2023-01-23T02:28:47;101503.47;;;5.76;100.00
26489;BME280;14169;43.684;10.484;2023-01-23T02:31:13;101490.53;;;5.75;100.00
26489;BME280;14169;43.684;10.484;2023-01-23T02:33:43;101501.72;;;5.75;100.00
26489;BME280;14169;43.684;10.484;2023-01-23T02:36:09;101492.25;;;5.76;100.00
26489;BME280;14169;43.684;10.484;2023-01-23T02:38:39;101483.63;;;5.81;100.00
26489;BME280;14169;43.684;10.484;2023-01-23T02:41:08;101482.75;;;5.81;100.00
26489;BME280;14169;43.684;10.484;2023-01-23T02:43:36;101479.31;;;5.79;100.00
26489;BME280;14169;43.684;10.484;2023-01-23T02:46:10;101473.31;;;5.80;100.00
26489;BME280;14169;43.684;10.484;2023-01-23T02:48:38;101467.25;;;5.84;100.00
26489;BME280;14169;43.684;10.484;2023-01-23T02:51:05;101469.00;;;5.88;100.00
26489;BME280;14169;43.684;10.484;2023-01-23T02:53:31;101469.00;;;5.88;100.00
26489;BME280;14169;43.684;10.484;2023-01-23T02:55:56;101474.16;;;5.80;100.00
26489;BME280;14169;43.684;10.484;2023-01-23T02:58:23;101468.13;;;5.77;100.00
26489;BME280;14169;43.684;10.484;2023-01-23T03:01:07;101466.41;;;5.73;100.00
26489;BME280;14169;43.684;10.484;2023-01-23T03:03:33;101464.69;;;5.73;100.00
26489;BME280;14169;43.684;10.484;2023-01-23T03:05:58;101462.09;;;5.72;100.00
26489;BME280;14169;43.684;10.484;2023-01-23T03:08:27;101459.50;;;5.75;100.00
26489;BME280;14169;43.684;10.484;2023-01-23T03:10:58;101466.41;;;5.87;100.00
26489;BME280;14169;43.684;10.484;2023-01-23T03:13:23;101470.69;;;5.83;100.00
26489;BME280;14169;43.684;10.484;2023-01-23T03:15:51;101467.28;;;5.76;100.00
26489;BME280;14169;43.684;10.484;2023-01-23T03:18:17;101476.75;;;5.73;100.00
26489;BME280;14169;43.684;10.484;2023-01-23T03:20:43;101468.97;;;5.67;100.00
26489;BME280;14169;43.684;10.484;2023-01-23T03:23:09;101474.16;;;5.65;100.00
26489;BME280;14169;43.684;10.484;2023-01-23T03:25:34;101471.59;;;5.62;100.00
26489;BME280;14169;43.684;10.484;2023-01-23T03:27:59;101468.13;;;5.62;100.00
26489;BME280;14169;43.684;10.484;2023-01-23T03:30:25;101477.59;;;5.63;100.00
26489;BME280;14169;43.684;10.484;2023-01-23T03:32:51;101475.00;;;5.63;100.00
26489;BME280;14169;43.684;10.484;2023-01-23T03:35:18;101487.09;;;5.58;100.00
26489;BME280;14169;43.684;10.484;2023-01-23T03:37:47;101478.47;;;5.51;100.00
26489;BME280;14169;43.684;10.484;2023-01-23T03:40:23;101472.44;;;5.40;100.00
26489;BME280;14169;43.684;10.484;2023-01-23T03:43:08;101481.03;;;5.38;100.00
26489;BME280;14169;43.684;10.484;2023-01-23T03:45:33;101478.44;;;5.32;100.00
26489;BME280;14169;43.684;10.484;2023-01-23T03:47:59;101469.84;;;5.30;100.00
26489;BME280;14169;43.684;10.484;2023-01-23T03:50:24;101467.25;;;5.31;100.00
26489;BME280;14169;43.684;10.484;2023-01-23T03:52:49;101467.25;;;5.36;100.00
26489;BME280;14169;43.684;10.484;2023-01-23T03:55:15;101475.03;;;5.42;100.00
26489;BME280;14169;43.684;10.484;2023-01-23T03:57:40;101491.38;;;5.44;100.00
26489;BME280;14169;43.684;10.484;2023-01-23T04:00:06;101487.09;;;5.44;100.00
26489;BME280;14169;43.684;10.484;2023-01-23T04:02:32;101478.44;;;5.47;100.00
26489;BME280;14169;43.684;10.484;2023-01-23T04:04:57;101487.06;;;5.47;100.00
26489;BME280;14169;43.684;10.484;2023-01-23T04:07:23;101492.25;;;5.50;100.00
26489;BME280;14169;43.684;10.484;2023-01-23T04:09:48;101487.06;;;5.55;100.00
26489;BME280;14169;43.684;10.484;2023-01-23T04:12:14;101484.50;;;5.56;100.00
26489;BME280;14169;43.684;10.484;2023-01-23T04:14:39;101488.81;;;5.60;100.00
26489;BME280;14169;43.684;10.484;2023-01-23T04:17:06;101489.69;;;5.62;100.00
26489;BME280;14169;43.684;10.484;2023-01-23T04:19:33;101504.31;;;5.65;100.00
26489;BME280;14169;43.684;10.484;2023-01-23T04:21:58;101493.13;;;5.67;100.00
26489;BME280;14169;43.684;10.484;2023-01-23T04:24:24;101495.69;;;5.69;100.00
26489;BME280;14169;43.684;10.484;2023-01-23T04:26:49;101495.69;;;5.73;100.00
26489;BME280;14169;43.684;10.484;2023-01-23T04:29:15;101497.44;;;5.74;100.00
26489;BME280;14169;43.684;10.484;2023-01-23T04:31:41;101494.84;;;5.77;100.00
26489;BME280;14169;43.684;10.484;2023-01-23T04:34:06;101501.72;;;5.77;100.00
26489;BME280;14169;43.684;10.484;2023-01-23T04:36:32;101501.75;;;5.78;100.00
26489;BME280;14169;43.684;10.484;2023-01-23T04:38:57;101493.13;;;5.79;100.00
26489;BME280;14169;43.684;10.484;2023-01-23T04:41:25;101494.84;;;5.77;100.00
26489;BME280;14169;43.684;10.484;2023-01-23T04:43:51;101497.44;;;5.80;100.00
26489;BME280;14169;43.684;10.484;2023-01-23T04:46:16;101497.44;;;5.93;100.00
26489;BME280;14169;43.684;10.484;2023-01-23T04:48:42;101489.66;;;6.06;100.00
26489;BME280;14169;43.684;10.484;2023-01-23T04:51:08;101492.19;;;6.23;100.00
26489;BME280;14169;43.684;10.484;2023-01-23T04:53:33;101493.88;;;6.33;100.00
26489;BME280;14169;43.684;10.484;2023-01-23T04:55:59;101485.25;;;6.41;100.00
26489;BME280;14169;43.684;10.484;2023-01-23T04:58:25;101485.22;;;6.47;100.00
26489;BME280;14169;43.684;10.484;2023-01-23T05:00:50;101472.28;;;6.47;100.00
26489;BME280;14169;43.684;10.484;2023-01-23T05:03:16;101470.56;;;6.48;100.00
26489;BME280;14169;43.684;10.484;2023-01-23T05:05:41;101478.34;;;6.48;100.00
26489;BME280;14169;43.684;10.484;2023-01-23T05:08:09;101486.94;;;6.51;100.00
26489;BME280;14169;43.684;10.484;2023-01-23T05:10:35;101503.34;;;6.52;100.00
26489;BME280;14169;43.684;10.484;2023-01-23T05:13:00;101504.22;;;6.52;100.00
26489;BME280;14169;43.684;10.484;2023-01-23T05:15:26;101507.66;;;6.54;100.00
26489;BME280;14169;43.684;10.484;2023-01-23T05:17:51;101505.06;;;6.56;100.00
26489;BME280;14169;43.684;10.484;2023-01-23T05:20:17;101500.75;;;6.52;100.00
26489;BME280;14169;43.684;10.484;2023-01-23T05:22:44;101495.59;;;6.50;100.00
26489;BME280;14169;43.684;10.484;2023-01-23T05:25:21;101496.44;;;6.49;100.00
26489;BME280;14169;43.684;10.484;2023-01-23T05:27:47;101497.31;;;6.48;100.00
26489;BME280;14169;43.684;10.484;2023-01-23T05:30:13;101492.13;;;6.45;100.00
26489;BME280;14169;43.684;10.484;2023-01-23T05:32:38;101494.75;;;6.44;100.00
26489;BME280;14169;43.684;10.484;2023-01-23T05:35:04;101493.88;;;6.43;100.00
26489;BME280;14169;43.684;10.484;2023-01-23T05:37:30;101478.34;;;6.43;100.00
26489;BME280;14169;43.684;10.484;2023-01-23T05:39:55;101468.84;;;6.45;100.00
26489;BME280;14169;43.684;10.484;2023-01-23T05:42:20;101460.22;;;6.43;100.00
26489;BME280;14169;43.684;10.484;2023-01-23T05:44:46;101448.16;;;6.44;100.00
26489;BME280;14169;43.684;10.484;2023-01-23T05:47:11;101432.63;;;6.45;100.00
26489;BME280;14169;43.684;10.484;2023-01-23T05:49:37;101439.50;;;6.48;100.00
26489;BME280;14169;43.684;10.484;2023-01-23T05:52:02;101450.72;;;6.51;100.00
26489;BME280;14169;43.684;10.484;2023-01-23T05:54:28;101449.00;;;6.50;100.00
26489;BME280;14169;43.684;10.484;2023-01-23T05:56:53;101454.19;;;6.47;100.00
26489;BME280;14169;43.684;10.484;2023-01-23T05:59:18;101451.59;;;6.41;100.00
26489;BME280;14169;43.684;10.484;2023-01-23T06:01:44;101449.03;;;6.38;100.00
26489;BME280;14169;43.684;10.484;2023-01-23T06:04:09;101461.09;;;6.35;100.00
26489;BME280;14169;43.684;10.484;2023-01-23T06:06:35;101458.53;;;6.29;100.00
26489;BME280;14169;43.684;10.484;2023-01-23T06:09:00;101469.78;;;6.26;100.00
26489;BME280;14169;43.684;10.484;2023-01-23T06:11:25;101481.84;;;6.24;100.00
26489;BME280;14169;43.684;10.484;2023-01-23T06:13:51;101480.97;;;6.27;100.00
26489;BME280;14169;43.684;10.484;2023-01-23T06:16:16;101499.94;;;6.29;100.00
26489;BME280;14169;43.684;10.484;2023-01-23T06:18:41;101498.22;;;6.29;100.00
26489;BME280;14169;43.684;10.484;2023-01-23T06:21:07;101499.97;;;6.30;100.00
26489;BME280;14169;43.684;10.484;2023-01-23T06:23:32;101495.63;;;6.28;100.00
26489;BME280;14169;43.684;10.484;2023-01-23T06:26:00;101495.66;;;6.26;100.00
26489;BME280;14169;43.684;10.484;2023-01-23T06:28:25;101492.19;;;6.27;100.00
26489;BME280;14169;43.684;10.484;2023-01-23T06:30:51;101489.59;;;6.27;100.00
26489;BME280;14169;43.684;10.484;2023-01-23T06:33:16;101490.47;;;6.29;100.00
26489;BME280;14169;43.684;10.484;2023-01-23T06:35:41;101487.03;;;6.24;100.00
26489;BME280;14169;43.684;10.484;2023-01-23T06:38:07;101495.66;;;6.26;100.00
26489;BME280;14169;43.684;10.484;2023-01-23T06:40:32;101483.56;;;6.27;100.00
26489;BME280;14169;43.684;10.484;2023-01-23T06:42:58;101497.34;;;6.27;100.00
26489;BME280;14169;43.684;10.484;2023-01-23T06:45:23;101501.69;;;6.30;100.00
26489;BME280;14169;43.684;10.484;2023-01-23T06:47:51;101492.19;;;6.27;100.00
26489;BME280;14169;43.684;10.484;2023-01-23T06:50:16;101493.91;;;6.21;100.00
26489;BME280;14169;43.684;10.484;2023-01-23T06:52:42;101490.47;;;6.17;100.00
26489;BME280;14169;43.684;10.484;2023-01-23T06:55:08;101493.06;;;6.20;100.00
26489;BME280;14169;43.684;10.484;2023-01-23T06:57:34;101499.09;;;6.25;100.00
26489;BME280;14169;43.684;10.484;2023-01-23T06:59:59;101497.34;;;6.32;100.00
26489;BME280;14169;43.684;10.484;2023-01-23T07:02:24;101486.97;;;6.41;100.00
26489;BME280;14169;43.684;10.484;2023-01-23T07:04:50;101482.66;;;6.41;100.00
26489;BME280;14169;43.684;10.484;2023-01-23T07:07:15;101491.28;;;6.42;100.00
26489;BME280;14169;43.684;10.484;2023-01-23T07:09:41;101484.41;;;6.42;100.00
26489;BME280;14169;43.684;10.484;2023-01-23T07:12:06;101477.50;;;6.40;100.00
26489;BME280;14169;43.684;10.484;2023-01-23T07:14:32;101485.25;;;6.44;100.00
26489;BME280;14169;43.684;10.484;2023-01-23T07:16:57;101482.66;;;6.43;100.00
26489;BME280;14169;43.684;10.484;2023-01-23T07:19:23;101493.03;;;6.44;100.00
26489;BME280;14169;43.684;10.484;2023-01-23T07:21:48;101486.09;;;6.45;100.00
26489;BME280;14169;43.684;10.484;2023-01-23T07:24:13;101487.81;;;6.49;100.00
26489;BME280;14169;43.684;10.484;2023-01-23T07:26:39;101482.66;;;6.50;100.00
26489;BME280;14169;43.684;10.484;2023-01-23T07:29:06;101473.13;;;6.54;100.00
26489;BME280;14169;43.684;10.484;2023-01-23T07:31:33;101476.63;;;6.48;100.00
26489;BME280;14169;43.684;10.484;2023-01-23T07:33:59;101478.34;;;6.43;100.00
26489;BME280;14169;43.684;10.484;2023-01-23T07:36:26;101474.06;;;6.38;100.00
26489;BME280;14169;43.684;10.484;2023-01-23T07:38:52;101464.56;;;6.37;100.00
26489;BME280;14169;43.684;10.484;2023-01-23T07:41:17;101462.84;;;6.34;100.00
26489;BME280;14169;43.684;10.484;2023-01-23T07:43:42;101473.22;;;6.34;100.00
26489;BME280;14169;43.684;10.484;2023-01-23T07:46:08;101466.28;;;6.33;100.00
26489;BME280;14169;43.684;10.484;2023-01-23T07:48:35;101472.31;;;6.37;100.00
26489;BME280;14169;43.684;10.484;2023-01-23T07:51:02;101458.50;;;6.41;100.00
26489;BME280;14169;43.684;10.484;2023-01-23T07:53:27;101465.38;;;6.45;100.00
26489;BME280;14169;43.684;10.484;2023-01-23T07:55:53;101467.13;;;6.46;100.00
26489;BME280;14169;43.684;10.484;2023-01-23T07:58:18;101472.28;;;6.47;100.00
26489;BME280;14169;43.684;10.484;2023-01-23T08:00:44;101469.66;;;6.55;100.00
26489;BME280;14169;43.684;10.484;2023-01-23T08:03:10;101472.25;;;6.59;100.00
26489;BME280;14169;43.684;10.484;2023-01-23T08:05:35;101485.19;;;6.62;100.00
26489;BME280;14169;43.684;10.484;2023-01-23T08:08:01;101488.59;;;6.67;100.00
26489;BME280;14169;43.684;10.484;2023-01-23T08:10:27;101490.34;;;6.65;100.00
26489;BME280;14169;43.684;10.484;2023-01-23T08:12:52;101479.16;;;6.60;100.00
26489;BME280;14169;43.684;10.484;2023-01-23T08:15:18;101482.59;;;6.61;100.00
26489;BME280;14169;43.684;10.484;2023-01-23T08:17:43;101482.59;;;6.61;100.00
26489;BME280;14169;43.684;10.484;2023-01-23T08:20:09;101502.47;;;6.60;100.00
26489;BME280;14169;43.684;10.484;2023-01-23T08:22:35;101493.81;;;6.57;100.00
26489;BME280;14169;43.684;10.484;2023-01-23T08:25:06;101499.88;;;6.56;100.00
26489;BME280;14169;43.684;10.484;2023-01-23T08:27:32;101489.53;;;6.54;100.00
26489;BME280;14169;43.684;10.484;2023-01-23T08:29:58;101476.59;;;6.51;100.00
26489;BME280;14169;43.684;10.484;2023-01-23T08:32:23;101468.81;;;6.51;100.00
26489;BME280;14169;43.684;10.484;2023-01-23T08:34:49;101465.38;;;6.52;100.00
26489;BME280;14169;43.684;10.484;2023-01-23T08:37:14;101461.91;;;6.59;100.00
26489;BME280;14169;43.684;10.484;2023-01-23T08:39:39;101458.44;;;6.57;100.00
26489;BME280;14169;43.684;10.484;2023-01-23T08:42:05;101456.72;;;6.55;100.00
26489;BME280;14169;43.684;10.484;2023-01-23T08:44:30;101449.84;;;6.55;100.00
26489;BME280;14169;43.684;10.484;2023-01-23T08:47:00;101461.06;;;6.54;100.00
26489;BME280;14169;43.684;10.484;2023-01-23T08:49:26;101466.25;;;6.54;100.00
26489;BME280;14169;43.684;10.484;2023-01-23T08:51:51;101467.94;;;6.57;100.00
26489;BME280;14169;43.684;10.484;2023-01-23T08:54:17;101470.53;;;6.57;100.00
26489;BME280;14169;43.684;10.484;2023-01-23T08:56:42;101467.09;;;6.58;100.00
26489;BME280;14169;43.684;10.484;2023-01-23T08:59:08;101475.69;;;6.60;100.00
26489;BME280;14169;43.684;10.484;2023-01-23T09:01:33;101466.19;;;6.59;100.00
26489;BME280;14169;43.684;10.484;2023-01-23T09:03:58;101477.44;;;6.56;100.00
26489;BME280;14169;43.684;10.484;2023-01-23T09:06:24;101472.25;;;6.55;100.00
26489;BME280;14169;43.684;10.484;2023-01-23T09:08:49;101491.25;;;6.51;100.00
26489;BME280;14169;43.684;10.484;2023-01-23T09:11:16;101479.19;;;6.51;100.00
26489;BME280;14169;43.684;10.484;2023-01-23T09:13:41;101476.59;;;6.50;100.00
26489;BME280;14169;43.684;10.484;2023-01-23T09:16:07;101472.28;;;6.49;100.00
26489;BME280;14169;43.684;10.484;2023-01-23T09:18:34;101464.53;;;6.47;100.00
26489;BME280;14169;43.684;10.484;2023-01-23T09:21:05;101458.50;;;6.44;100.00
26489;BME280;14169;43.684;10.484;2023-01-23T09:23:30;101460.25;;;6.42;100.00
26489;BME280;14169;43.684;10.484;2023-01-23T09:26:04;101461.09;;;6.39;100.00
26489;BME280;14169;43.684;10.484;2023-01-23T09:28:30;101459.38;;;6.44;100.00
26489;BME280;14169;43.684;10.484;2023-01-23T09:30:55;101453.28;;;6.53;100.00
26489;BME280;14169;43.684;10.484;2023-01-23T09:33:21;101447.22;;;6.61;100.00
26489;BME280;14169;43.684;10.484;2023-01-23T09:35:51;101444.59;;;6.72;100.00
26489;BME280;14169;43.684;10.484;2023-01-23T09:38:16;101443.69;;;6.78;100.00
26489;BME280;14169;43.684;10.484;2023-01-23T09:40:48;101435.09;;;6.69;100.00
26489;BME280;14169;43.684;10.484;2023-01-23T09:46:11;101429.94;;;6.65;100.00
26489;BME280;14169;43.684;10.484;2023-01-23T09:48:45;101432.50;;;6.66;100.00
26489;BME280;14169;43.684;10.484;2023-01-23T09:51:40;101433.34;;;6.73;100.00
26489;BME280;14169;43.684;10.484;2023-01-23T09:57:14;101440.19;;;6.85;100.00
26489;BME280;14169;43.684;10.484;2023-01-23T09:59:45;101453.13;;;6.89;100.00
26489;BME280;14169;43.684;10.484;2023-01-23T10:02:18;101460.88;;;6.92;100.00
26489;BME280;14169;43.684;10.484;2023-01-23T10:04:46;101456.53;;;6.96;100.00
26489;BME280;14169;43.684;10.484;2023-01-23T10:07:36;101471.22;;;6.94;100.00
26489;BME280;14169;43.684;10.484;2023-01-23T10:16:03;101450.56;;;6.79;100.00
26489;BME280;14169;43.684;10.484;2023-01-23T10:27:07;101427.94;;;7.20;100.00
26489;BME280;14169;43.684;10.484;2023-01-23T10:29:38;101429.56;;;7.28;100.00
26489;BME280;14169;43.684;10.484;2023-01-23T10:32:19;101429.44;;;7.48;100.00
26489;BME280;14169;43.684;10.484;2023-01-23T10:35:01;101428.38;;;7.70;100.00
26489;BME280;14169;43.684;10.484;2023-01-23T10:37:59;101428.19;;;7.87;100.00
26489;BME280;14169;43.684;10.484;2023-01-23T10:40:26;101422.09;;;7.92;100.00
26489;BME280;14169;43.684;10.484;2023-01-23T10:43:16;101432.38;;;8.01;100.00
26489;BME280;14169;43.684;10.484;2023-01-23T10:45:41;101427.03;;;8.15;100.00
26489;BME280;14169;43.684;10.484;2023-01-23T10:48:45;101422.59;;;8.24;100.00
26489;BME280;14169;43.684;10.484;2023-01-23T10:51:30;101413.91;;;8.30;100.00
26489;BME280;14169;43.684;10.484;2023-01-23T10:59:35;101396.88;;;8.08;100.00
26489;BME280;14169;43.684;10.484;2023-01-23T11:04:37;101402.91;;;8.07;100.00
26489;BME280;14169;43.684;10.484;2023-01-23T11:07:28;101392.47;;;8.13;100.00
26489;BME280;14169;43.684;10.484;2023-01-23T11:09:59;101400.19;;;8.19;100.00
26489;BME280;14169;43.684;10.484;2023-01-23T11:12:33;101397.59;;;8.17;100.00
26489;BME280;14169;43.684;10.484;2023-01-23T11:17:46;101389.69;;;8.29;100.00
26489;BME280;14169;43.684;10.484;2023-01-23T11:23:22;101369.63;;;8.42;100.00
26489;BME280;14169;43.684;10.484;2023-01-23T11:25:49;101361.72;;;8.50;100.00
26489;BME280;14169;43.684;10.484;2023-01-23T11:28:45;101357.34;;;8.53;100.00
26489;BME280;14169;43.684;10.484;2023-01-23T11:31:14;101355.56;;;8.57;100.00
26489;BME280;14169;43.684;10.484;2023-01-23T11:42:01;101350.44;;;8.54;100.00
26489;BME280;14169;43.684;10.484;2023-01-23T11:44:27;101342.84;;;8.37;100.00
26489;BME280;14169;43.684;10.484;2023-01-23T12:03:14;101312.84;;;8.18;100.00
26489;BME280;14169;43.684;10.484;2023-01-23T12:05:51;101333.53;;;8.21;100.00
26489;BME280;14169;43.684;10.484;2023-01-23T12:11:16;101327.50;;;8.22;100.00
26489;BME280;14169;43.684;10.484;2023-01-23T12:19:19;101313.53;;;8.29;100.00
26489;BME280;14169;43.684;10.484;2023-01-23T12:22:13;101308.28;;;8.33;100.00
26489;BME280;14169;43.684;10.484;2023-01-23T12:29:57;101298.59;;;8.45;100.00
26489;BME280;14169;43.684;10.484;2023-01-23T12:40:26;101304.56;;;8.51;100.00
26489;BME280;14169;43.684;10.484;2023-01-23T12:43:03;101310.66;;;8.50;100.00
26489;BME280;14169;43.684;10.484;2023-01-23T12:45:32;101318.44;;;8.52;100.00
26489;BME280;14169;43.684;10.484;2023-01-23T12:48:15;101309.75;;;8.53;100.00
26489;BME280;14169;43.684;10.484;2023-01-23T12:50:47;101307.22;;;8.50;100.00
26489;BME280;14169;43.684;10.484;2023-01-23T12:53:15;101302.97;;;8.44;100.00
26489;BME280;14169;43.684;10.484;2023-01-23T13:01:45;101308.28;;;8.35;100.00
26489;BME280;14169;43.684;10.484;2023-01-23T13:04:27;101309.13;;;8.35;100.00
26489;BME280;14169;43.684;10.484;2023-01-23T13:12:25;101304.84;;;8.33;100.00
26489;BME280;14169;43.684;10.484;2023-01-23T13:14:53;101304.84;;;8.33;100.00
26489;BME280;14169;43.684;10.484;2023-01-23T13:17:38;101297.94;;;8.32;100.00
26489;BME280;14169;43.684;10.484;2023-01-23T13:25:50;101312.59;;;8.34;100.00
26489;BME280;14169;43.684;10.484;2023-01-23T13:28:48;101318.69;;;8.33;100.00
26489;BME280;14169;43.684;10.484;2023-01-23T13:31:44;101324.72;;;8.32;100.00
26489;BME280;14169;43.684;10.484;2023-01-23T13:36:43;101319.53;;;8.32;100.00
26489;BME280;14169;43.684;10.484;2023-01-23T13:39:24;101323.00;;;8.33;100.00
26489;BME280;14169;43.684;10.484;2023-01-23T13:44:35;101320.47;;;8.30;100.00
26489;BME280;14169;43.684;10.484;2023-01-23T13:50:28;101326.53;;;8.29;100.00
26489;BME280;14169;43.684;10.484;2023-01-23T13:52:58;101323.94;;;8.27;100.00
26489;BME280;14169;43.684;10.484;2023-01-23T13:55:49;101320.53;;;8.24;100.00
26489;BME280;14169;43.684;10.484;2023-01-23T13:58:33;101332.63;;;8.25;100.00
26489;BME280;14169;43.684;10.484;2023-01-23T14:01:09;101332.66;;;8.23;100.00
26489;BME280;14169;43.684;10.484;2023-01-23T14:04:00;101337.88;;;8.20;100.00
26489;BME280;14169;43.684;10.484;2023-01-23T14:06:48;101345.69;;;8.19;100.00
26489;BME280;14169;43.684;10.484;2023-01-23T14:09:22;101344.00;;;8.15;100.00
26489;BME280;14169;43.684;10.484;2023-01-23T14:11:58;101349.25;;;8.12;100.00
26489;BME280;14169;43.684;10.484;2023-01-23T14:14:28;101351.06;;;8.04;100.00
26489;BME280;14169;43.684;10.484;2023-01-23T14:17:16;101354.56;;;8.01;100.00
26489;BME280;14169;43.684;10.484;2023-01-23T14:19:56;101361.50;;;7.96;100.00
26489;BME280;14169;43.684;10.484;2023-01-23T14:22:26;101355.59;;;7.88;100.00
26489;BME280;14169;43.684;10.484;2023-01-23T14:24:53;101363.34;;;7.87;100.00
26489;BME280;14169;43.684;10.484;2023-01-23T14:27:20;101369.47;;;7.84;100.00
26489;BME280;14169;43.684;10.484;2023-01-23T14:30:21;101373.78;;;7.81;100.00
26489;BME280;14169;43.684;10.484;2023-01-23T14:32:45;101377.31;;;7.75;100.00
26489;BME280;14169;43.684;10.484;2023-01-23T14:35:28;101380.84;;;7.67;100.00
26489;BME280;14169;43.684;10.484;2023-01-23T14:37:57;101390.44;;;7.60;100.00
26489;BME280;14169;43.684;10.484;2023-01-23T14:40:23;101399.97;;;7.57;100.00